sensor_id;sensor_type;location;lat;lon;timestamp;P1;durP1;ratioP1;P2;durP2;ratioP2
15073;SDS011;7636;63.884;20.308;2023-03-03T16:15:27;6.00;;;0.80;;
15073;SDS011;7636;63.884;20.308;2023-03-03T16:23:44;3.77;;;0.97;;
15073;SDS011;7636;63.884;20.308;2023-03-03T16:31:35;7.13;;;1.10;;
15073;SDS011;7636;63.884;20.308;2023-03-03T16:52:48;6.07;;;0.80;;
15073;SDS011;7636;63.884;20.308;2023-03-03T16:55:20;2.03;;;0.77;;
15073;SDS011;7636;63.884;20.308;2023-03-03T16:57:58;4.60;;;0.50;;
15073;SDS011;7636;63.884;20.308;2023-03-03T17:23:21;6.07;;;0.70;;
15073;SDS011;7636;63.884;20.308;2023-03-03T17:37:19;3.80;;;0.63;;
15073;SDS011;7636;63.884;20.308;2023-03-03T17:42:42;5.10;;;0.70;;
15073;SDS011;7636;63.884;20.308;2023-03-03T17:45:35;4.03;;;0.73;;
15073;SDS011;7636;63.884;20.308;2023-03-03T17:56:25;6.13;;;0.70;;
15073;SDS011;7636;63.884;20.308;2023-03-03T18:02:03;3.77;;;0.43;;
15073;SDS011;7636;63.884;20.308;2023-03-03T18:09:59;2.87;;;0.50;;
15073;SDS011;7636;63.884;20.308;2023-03-03T18:13:02;3.30;;;0.50;;
15073;SDS011;7636;63.884;20.308;2023-03-03T18:24:34;6.77;;;0.60;;
15073;SDS011;7636;63.884;20.308;2023-03-03T18:35:27;1.37;;;0.37;;
15073;SDS011;7636;63.884;20.308;2023-03-03T18:54:06;2.70;;;0.40;;
15073;SDS011;7636;63.884;20.308;2023-03-03T19:04:51;1.60;;;0.67;;
15073;SDS011;7636;63.884;20.308;2023-03-03T19:07:28;3.13;;;0.50;;
15073;SDS011;7636;63.884;20.308;2023-03-03T19:12:48;2.50;;;0.50;;
15073;SDS011;7636;63.884;20.308;2023-03-03T19:26:28;0.70;;;0.40;;
15073;SDS011;7636;63.884;20.308;2023-03-03T19:34:56;1.40;;;0.23;;
15073;SDS011;7636;63.884;20.308;2023-03-03T19:43:27;3.60;;;0.40;;
15073;SDS011;7636;63.884;20.308;2023-03-03T19:46:17;1.73;;;0.30;;
15073;SDS011;7636;63.884;20.308;2023-03-03T19:51:36;2.33;;;0.57;;
15073;SDS011;7636;63.884;20.308;2023-03-03T19:56:55;1.40;;;0.30;;
15073;SDS011;7636;63.884;20.308;2023-03-03T20:01:58;1.17;;;0.40;;
15073;SDS011;7636;63.884;20.308;2023-03-03T20:04:45;3.73;;;0.30;;
15073;SDS011;7636;63.884;20.308;2023-03-03T20:07:38;1.17;;;0.23;;
15073;SDS011;7636;63.884;20.308;2023-03-03T20:10:17;1.70;;;0.20;;
15073;SDS011;7636;63.884;20.308;2023-03-03T20:13:00;1.70;;;0.20;;
15073;SDS011;7636;63.884;20.308;2023-03-03T20:25:17;1.30;;;0.33;;
15073;SDS011;7636;63.884;20.308;2023-03-03T20:27:49;0.43;;;0.20;;
15073;SDS011;7636;63.884;20.308;2023-03-03T20:30:30;5.17;;;0.43;;
15073;SDS011;7636;63.884;20.308;2023-03-03T20:33:30;1.00;;;0.40;;
15073;SDS011;7636;63.884;20.308;2023-03-03T21:07:06;0.40;;;0.10;;
15073;SDS011;7636;63.884;20.308;2023-03-03T21:09:33;0.20;;;0.10;;
15073;SDS011;7636;63.884;20.308;2023-03-03T21:12:35;0.47;;;0.10;;
15073;SDS011;7636;63.884;20.308;2023-03-03T21:14:59;0.10;;;0.00;;
15073;SDS011;7636;63.884;20.308;2023-03-03T21:17:28;0.87;;;0.10;;
15073;SDS011;7636;63.884;20.308;2023-03-03T21:22:48;0.20;;;0.20;;
15073;SDS011;7636;63.884;20.308;2023-03-03T21:26:01;2.10;;;0.10;;
15073;SDS011;7636;63.884;20.308;2023-03-03T21:28:57;0.40;;;0.10;;
15073;SDS011;7636;63.884;20.308;2023-03-03T21:36:13;0.63;;;0.10;;
15073;SDS011;7636;63.884;20.308;2023-03-03T21:38:41;0.87;;;0.20;;
15073;SDS011;7636;63.884;20.308;2023-03-03T21:41:08;0.30;;;0.20;;
15073;SDS011;7636;63.884;20.308;2023-03-03T21:43:39;0.20;;;0.10;;
15073;SDS011;7636;63.884;20.308;2023-03-03T21:46:11;1.97;;;0.20;;
15073;SDS011;7636;63.884;20.308;2023-03-03T21:48:39;1.17;;;0.30;;
15073;SDS011;7636;63.884;20.308;2023-03-03T21:51:07;0.87;;;0.10;;
15073;SDS011;7636;63.884;20.308;2023-03-03T21:53:34;0.30;;;0.10;;
15073;SDS011;7636;63.884;20.308;2023-03-03T21:56:01;0.20;;;0.20;;
15073;SDS011;7636;63.884;20.308;2023-03-03T21:58:28;0.43;;;0.10;;
15073;SDS011;7636;63.884;20.308;2023-03-03T22:00:55;0.70;;;0.20;;
15073;SDS011;7636;63.884;20.308;2023-03-03T22:03:21;0.40;;;0.10;;
15073;SDS011;7636;63.884;20.308;2023-03-03T22:05:48;0.30;;;0.30;;
15073;SDS011;7636;63.884;20.308;2023-03-03T22:08:15;0.67;;;0.20;;
15073;SDS011;7636;63.884;20.308;2023-03-03T22:10:50;0.77;;;0.20;;
15073;SDS011;7636;63.884;20.308;2023-03-03T22:13:22;1.03;;;0.30;;
15073;SDS011;7636;63.884;20.308;2023-03-03T22:15:50;1.90;;;0.10;;
15073;SDS011;7636;63.884;20.308;2023-03-03T22:18:17;0.23;;;0.10;;
15073;SDS011;7636;63.884;20.308;2023-03-03T22:20:45;2.83;;;0.37;;
15073;SDS011;7636;63.884;20.308;2023-03-03T22:23:13;1.50;;;0.30;;
15073;SDS011;7636;63.884;20.308;2023-03-03T22:25:41;1.13;;;0.20;;
15073;SDS011;7636;63.884;20.308;2023-03-03T22:28:07;1.20;;;0.10;;
15073;SDS011;7636;63.884;20.308;2023-03-03T22:30:35;0.33;;;0.10;;
15073;SDS011;7636;63.884;20.308;2023-03-03T22:33:02;0.17;;;0.17;;
15073;SDS011;7636;63.884;20.308;2023-03-03T22:35:29;0.30;;;0.10;;
15073;SDS011;7636;63.884;20.308;2023-03-03T22:37:56;2.00;;;0.10;;
15073;SDS011;7636;63.884;20.308;2023-03-03T22:40:23;0.40;;;0.30;;
15073;SDS011;7636;63.884;20.308;2023-03-03T22:42:50;1.13;;;0.30;;
15073;SDS011;7636;63.884;20.308;2023-03-03T22:45:17;2.20;;;0.40;;
15073;SDS011;7636;63.884;20.308;2023-03-03T22:47:43;1.40;;;0.10;;
15073;SDS011;7636;63.884;20.308;2023-03-03T22:50:11;0.33;;;0.17;;
15073;SDS011;7636;63.884;20.308;2023-03-03T22:52:38;0.33;;;0.20;;
15073;SDS011;7636;63.884;20.308;2023-03-03T22:55:04;2.57;;;0.40;;
15073;SDS011;7636;63.884;20.308;2023-03-03T22:57:32;1.93;;;0.27;;
15073;SDS011;7636;63.884;20.308;2023-03-03T22:59:58;0.93;;;0.20;;
15073;SDS011;7636;63.884;20.308;2023-03-03T23:02:25;0.10;;;0.00;;
15073;SDS011;7636;63.884;20.308;2023-03-03T23:04:52;0.53;;;0.10;;
15073;SDS011;7636;63.884;20.308;2023-03-03T23:07:23;0.60;;;0.40;;
15073;SDS011;7636;63.884;20.308;2023-03-03T23:09:51;0.53;;;0.20;;
15073;SDS011;7636;63.884;20.308;2023-03-03T23:12:18;0.43;;;0.20;;
15073;SDS011;7636;63.884;20.308;2023-03-03T23:14:45;0.30;;;0.13;;
15073;SDS011;7636;63.884;20.308;2023-03-03T23:17:11;0.87;;;0.20;;
15073;SDS011;7636;63.884;20.308;2023-03-03T23:19:38;2.63;;;0.30;;
15073;SDS011;7636;63.884;20.308;2023-03-03T23:22:05;0.30;;;0.20;;
15073;SDS011;7636;63.884;20.308;2023-03-03T23:24:31;0.10;;;0.10;;
15073;SDS011;7636;63.884;20.308;2023-03-03T23:26:58;0.50;;;0.10;;
15073;SDS011;7636;63.884;20.308;2023-03-03T23:29:26;0.20;;;0.10;;
15073;SDS011;7636;63.884;20.308;2023-03-03T23:31:52;1.70;;;0.40;;
15073;SDS011;7636;63.884;20.308;2023-03-03T23:34:19;0.77;;;0.30;;
15073;SDS011;7636;63.884;20.308;2023-03-03T23:36:46;0.10;;;0.10;;
15073;SDS011;7636;63.884;20.308;2023-03-03T23:39:13;1.40;;;0.10;;
15073;SDS011;7636;63.884;20.308;2023-03-03T23:41:40;0.80;;;0.20;;
15073;SDS011;7636;63.884;20.308;2023-03-03T23:44:07;0.93;;;0.30;;
15073;SDS011;7636;63.884;20.308;2023-03-03T23:46:34;1.43;;;0.13;;
15073;SDS011;7636;63.884;20.308;2023-03-03T23:49:00;0.20;;;0.17;;
15073;SDS011;7636;63.884;20.308;2023-03-03T23:51:27;1.60;;;0.10;;
15073;SDS011;7636;63.884;20.308;2023-03-03T23:53:54;0.40;;;0.20;;
15073;SDS011;7636;63.884;20.308;2023-03-03T23:56:21;0.40;;;0.17;;
15073;SDS011;7636;63.884;20.308;2023-03-03T23:58:48;1.83;;;0.57;;
